createdAt,value
2018-01-11T00:00:27.337Z,7.10
2018-01-11T00:02:54.933Z,7.10
2018-01-11T00:05:22.497Z,7.10
2018-01-11T00:07:50.344Z,7.10
2018-01-11T00:10:17.917Z,7.10
2018-01-11T00:12:45.468Z,7.10
2018-01-11T00:15:13.049Z,7.10
2018-01-11T00:17:40.621Z,7.10
2018-01-11T00:20:08.234Z,7.10
2018-01-11T00:22:35.785Z,7.10
2018-01-11T00:25:03.377Z,7.00
2018-01-11T00:27:31.701Z,6.90
2018-01-11T00:30:00.057Z,6.80
2018-01-11T00:32:27.610Z,6.80
2018-01-11T00:34:55.216Z,6.70
2018-01-11T00:37:22.765Z,6.60
2018-01-11T00:39:51.102Z,6.60
2018-01-11T00:42:18.696Z,6.60
2018-01-11T00:44:47.025Z,6.60
2018-01-11T00:47:14.605Z,6.60
2018-01-11T00:49:42.187Z,6.70
2018-01-11T00:52:09.780Z,6.70
2018-01-11T00:54:37.353Z,6.70
2018-01-11T00:57:04.974Z,6.70
2018-01-11T00:59:32.583Z,6.70
2018-01-11T01:02:00.155Z,6.70
2018-01-11T01:04:27.730Z,6.70
2018-01-11T01:06:55.320Z,6.70
2018-01-11T01:09:22.897Z,6.70
2018-01-11T01:11:51.197Z,6.70
2018-01-11T01:14:18.780Z,6.70
2018-01-11T01:16:46.440Z,6.70
2018-01-11T01:19:14.004Z,6.70
2018-01-11T01:21:41.569Z,6.70
2018-01-11T01:24:09.206Z,6.60
2018-01-11T01:26:36.745Z,6.60
2018-01-11T01:29:05.092Z,6.60
2018-01-11T01:31:32.656Z,6.60
2018-01-11T01:34:00.318Z,6.50
2018-01-11T01:36:27.869Z,6.50
2018-01-11T01:38:55.449Z,6.50
2018-01-11T01:41:24.928Z,6.50
2018-01-11T01:43:53.321Z,6.40
2018-01-11T01:46:21.687Z,6.30
2018-01-11T01:48:49.245Z,6.40
2018-01-11T01:51:16.813Z,6.40
2018-01-11T01:53:44.485Z,6.40
2018-01-11T01:56:12.051Z,6.30
2018-01-11T01:58:39.598Z,6.30
2018-01-11T02:01:07.574Z,6.30
2018-01-11T02:03:35.148Z,6.30
2018-01-11T02:06:02.717Z,6.30
2018-01-11T02:08:31.037Z,6.30
2018-01-11T02:10:58.631Z,6.30
2018-01-11T02:13:26.243Z,6.20
2018-01-11T02:15:54.369Z,6.20
2018-01-11T02:18:21.943Z,6.20
2018-01-11T02:20:49.540Z,6.10
2018-01-11T02:23:17.117Z,6.10
2018-01-11T02:25:44.665Z,6.00
2018-01-11T02:28:12.239Z,5.90
2018-01-11T02:30:39.790Z,5.80
2018-01-11T02:33:07.387Z,5.80
2018-01-11T02:35:34.956Z,5.80
2018-01-11T02:38:03.062Z,5.70
2018-01-11T02:40:31.397Z,5.70
2018-01-11T02:42:58.975Z,5.70
2018-01-11T02:45:26.592Z,5.70
2018-01-11T02:47:54.181Z,5.70
2018-01-11T02:50:21.749Z,5.70
2018-01-11T02:52:49.310Z,5.70
2018-01-11T02:55:16.881Z,5.80
2018-01-11T02:57:44.442Z,5.80
2018-01-11T03:00:12.018Z,5.80
2018-01-11T03:02:40.491Z,5.80
2018-01-11T03:05:08.052Z,5.80
2018-01-11T03:07:35.611Z,5.80
2018-01-11T03:10:03.177Z,5.80
2018-01-11T03:12:31.498Z,5.90
2018-01-11T03:14:59.045Z,5.90
2018-01-11T03:17:26.625Z,5.90
2018-01-11T03:19:54.218Z,5.90
2018-01-11T03:22:21.801Z,6.00
2018-01-11T03:24:49.361Z,6.00
2018-01-11T03:27:17.761Z,6.10
2018-01-11T03:29:46.074Z,6.10
2018-01-11T03:32:13.662Z,6.10
2018-01-11T03:34:41.246Z,6.10
2018-01-11T03:37:12.564Z,6.10
2018-01-11T03:39:40.293Z,6.10
2018-01-11T03:42:07.858Z,6.20
2018-01-11T03:44:35.426Z,6.20
2018-01-11T03:47:03.001Z,6.20
2018-01-11T03:49:30.575Z,6.20
2018-01-11T03:51:58.228Z,6.20
2018-01-11T03:54:25.787Z,6.20
2018-01-11T03:56:53.356Z,6.20
2018-01-11T03:59:20.917Z,6.30
2018-01-11T04:01:48.650Z,6.30
2018-01-11T04:04:16.266Z,5.90
2018-01-11T04:06:43.866Z,6.30
2018-01-11T04:09:11.409Z,6.40
2018-01-11T04:11:39.017Z,6.40
2018-01-11T04:14:06.569Z,6.40
2018-01-11T04:16:34.140Z,6.40
2018-01-11T04:19:01.696Z,6.40
2018-01-11T04:21:29.268Z,6.40
2018-01-11T04:23:56.925Z,6.50
2018-01-11T04:26:24.490Z,6.50
2018-01-11T04:28:52.061Z,6.50
2018-01-11T04:31:19.633Z,6.50
2018-01-11T04:33:47.180Z,6.50
2018-01-11T04:36:14.770Z,6.50
2018-01-11T04:38:43.120Z,6.40
2018-01-11T04:41:10.789Z,6.40
2018-01-11T04:43:38.378Z,6.40
2018-01-11T04:46:06.709Z,6.40
2018-01-11T04:48:34.306Z,6.40
2018-01-11T04:51:02.689Z,6.40
2018-01-11T04:53:31.048Z,6.40
2018-01-11T04:55:58.623Z,6.40
2018-01-11T04:58:26.933Z,6.40
2018-01-11T05:00:54.529Z,6.40
2018-01-11T05:03:22.074Z,6.40
2018-01-11T05:05:49.656Z,6.40
2018-01-11T05:08:17.225Z,6.40
2018-01-11T05:10:44.792Z,6.40
2018-01-11T05:13:12.354Z,6.40
2018-01-11T05:15:39.922Z,6.40
2018-01-11T05:18:07.468Z,6.40
2018-01-11T05:20:35.392Z,6.40
2018-01-11T05:23:02.944Z,6.40
2018-01-11T05:25:30.536Z,6.30
2018-01-11T05:27:58.087Z,6.30
2018-01-11T05:30:25.653Z,6.30
2018-01-11T05:32:53.209Z,6.30
2018-01-11T05:35:20.793Z,6.40
2018-01-11T05:37:48.350Z,6.40
2018-01-11T05:40:15.912Z,6.40
2018-01-11T05:42:43.481Z,6.40
2018-01-11T05:45:11.068Z,6.40
2018-01-11T05:47:39.427Z,6.40
2018-01-11T05:50:06.978Z,6.40
2018-01-11T05:52:34.594Z,6.40
2018-01-11T05:55:02.138Z,6.40
2018-01-11T05:57:30.573Z,6.40
2018-01-11T05:59:58.133Z,6.40
2018-01-11T06:02:25.752Z,6.40
2018-01-11T06:04:53.308Z,6.40
2018-01-11T06:07:20.876Z,6.40
2018-01-11T06:09:48.466Z,6.40
2018-01-11T06:12:16.009Z,6.40
2018-01-11T06:14:43.600Z,6.40
2018-01-11T06:17:11.190Z,6.40
2018-01-11T06:19:38.737Z,6.50
2018-01-11T06:22:06.338Z,6.50
2018-01-11T06:24:33.922Z,6.50
2018-01-11T06:27:01.480Z,6.50
2018-01-11T06:29:29.078Z,6.50
2018-01-11T06:31:57.001Z,6.50
2018-01-11T06:34:25.341Z,6.60
2018-01-11T06:36:53.700Z,6.50
2018-01-11T06:39:21.269Z,6.50
2018-01-11T06:41:49.561Z,6.60
2018-01-11T06:44:17.897Z,6.60
2018-01-11T06:46:45.469Z,6.60
2018-01-11T06:49:13.037Z,6.60
2018-01-11T06:51:40.627Z,6.60
2018-01-11T06:54:08.960Z,6.60
2018-01-11T06:56:36.540Z,6.60
2018-01-11T06:59:04.088Z,6.60
2018-01-11T07:01:31.732Z,6.60
2018-01-11T07:03:59.284Z,6.60
2018-01-11T07:06:26.864Z,6.60
2018-01-11T07:08:54.463Z,6.60
2018-01-11T07:11:22.014Z,6.60
2018-01-11T07:13:49.583Z,6.60
2018-01-11T07:16:17.125Z,6.60
2018-01-11T07:18:44.702Z,6.60
2018-01-11T07:21:12.274Z,6.60
2018-01-11T07:23:40.604Z,6.50
2018-01-11T07:26:08.174Z,6.10
2018-01-11T07:28:35.770Z,6.50
2018-01-11T07:31:04.103Z,6.50
2018-01-11T07:33:31.659Z,6.50
2018-01-11T07:35:59.236Z,6.50
2018-01-11T07:38:26.816Z,6.50
2018-01-11T07:40:54.408Z,6.60
2018-01-11T07:43:21.957Z,6.60
2018-01-11T07:45:50.308Z,6.60
2018-01-11T07:48:17.862Z,6.60
2018-01-11T07:50:45.527Z,6.60
2018-01-11T07:53:13.098Z,6.60
2018-01-11T07:55:40.704Z,6.60
2018-01-11T07:58:08.272Z,6.60
2018-01-11T08:00:36.664Z,6.60
2018-01-11T08:03:05.015Z,6.60
2018-01-11T08:05:32.582Z,6.60
2018-01-11T08:08:00.154Z,6.60
2018-01-11T08:10:27.816Z,6.60
2018-01-11T08:12:55.390Z,6.60
2018-01-11T08:15:22.936Z,6.60
2018-01-11T08:17:51.280Z,6.70
2018-01-11T08:20:19.629Z,6.70
2018-01-11T08:22:47.204Z,6.70
2018-01-11T08:25:14.750Z,6.70
2018-01-11T08:27:42.359Z,6.80
2018-01-11T08:30:09.935Z,6.70
2018-01-11T08:32:37.538Z,6.80
2018-01-11T08:35:05.186Z,6.80
2018-01-11T08:37:32.742Z,6.90
2018-01-11T08:40:00.310Z,6.90
2018-01-11T08:42:27.921Z,7.00
2018-01-11T08:44:56.231Z,7.10
2018-01-11T08:47:23.793Z,7.10
2018-01-11T08:49:51.376Z,7.20
2018-01-11T08:52:19.059Z,7.20
2018-01-11T08:54:46.622Z,7.30
2018-01-11T08:57:14.182Z,7.40
2018-01-11T08:59:41.766Z,7.50
2018-01-11T09:02:10.088Z,7.50
2018-01-11T09:04:37.670Z,7.50
2018-01-11T09:07:05.225Z,7.50
2018-01-11T09:09:32.875Z,7.50
2018-01-11T09:12:00.422Z,7.50
2018-01-11T09:14:28.004Z,7.50
2018-01-11T09:16:55.590Z,7.50
2018-01-11T09:19:23.169Z,7.50
2018-01-11T09:21:51.515Z,7.60
2018-01-11T09:24:19.094Z,7.60
2018-01-11T09:26:46.706Z,7.70
2018-01-11T09:29:14.261Z,7.80
2018-01-11T09:31:41.828Z,7.80
2018-01-11T09:34:09.377Z,7.90
2018-01-11T09:36:36.957Z,7.90
2018-01-11T09:39:04.590Z,7.90
2018-01-11T09:41:32.925Z,7.90
2018-01-11T09:44:03.881Z,8.00
2018-01-11T09:46:31.418Z,7.90
2018-01-11T09:48:59.001Z,7.90
2018-01-11T09:51:26.555Z,7.90
2018-01-11T09:53:54.134Z,8.00
2018-01-11T09:56:22.457Z,8.00
2018-01-11T09:58:50.030Z,8.00
2018-01-11T10:01:18.120Z,8.10
2018-01-11T10:03:45.697Z,8.00
2018-01-11T10:06:14.022Z,8.10
2018-01-11T10:08:41.580Z,8.10
2018-01-11T10:11:09.575Z,8.10
2018-01-11T10:13:37.154Z,8.10
2018-01-11T10:16:04.737Z,8.20
2018-01-11T10:18:33.078Z,8.40
2018-01-11T10:21:00.645Z,8.40
2018-01-11T10:23:28.193Z,8.40
2018-01-11T10:25:55.761Z,8.50
2018-01-11T10:28:23.360Z,8.60
2018-01-11T10:30:51.720Z,8.60
2018-01-11T10:33:19.281Z,8.60
2018-01-11T10:35:46.849Z,8.60
2018-01-11T10:38:15.199Z,8.60
2018-01-11T10:40:42.777Z,8.60
2018-01-11T10:43:10.349Z,8.60
2018-01-11T10:45:38.745Z,8.50
2018-01-11T10:48:06.338Z,8.50
2018-01-11T10:50:33.909Z,8.50
2018-01-11T10:53:01.484Z,8.50
2018-01-11T10:55:29.076Z,8.60
2018-01-11T10:57:56.622Z,8.50
2018-01-11T11:00:24.241Z,8.50
2018-01-11T11:02:52.209Z,8.40
2018-01-11T11:05:19.820Z,8.50
2018-01-11T11:07:47.443Z,8.40
2018-01-11T11:10:15.014Z,8.50
2018-01-11T11:12:42.586Z,8.50
2018-01-11T11:15:10.173Z,8.60
2018-01-11T11:17:38.506Z,8.60
2018-01-11T11:20:06.085Z,8.60
2018-01-11T11:22:33.680Z,8.60
2018-01-11T11:25:01.993Z,8.60
2018-01-11T11:27:29.599Z,8.60
2018-01-11T11:29:57.149Z,8.60
2018-01-11T11:32:24.746Z,8.60
2018-01-11T11:34:53.890Z,8.70
2018-01-11T11:37:21.454Z,8.70
2018-01-11T11:39:49.047Z,8.70
2018-01-11T11:42:16.702Z,8.70
2018-01-11T11:44:44.285Z,8.70
2018-01-11T11:47:12.599Z,8.80
2018-01-11T11:49:40.161Z,8.70
2018-01-11T11:52:07.721Z,8.80
2018-01-11T11:54:35.281Z,8.80
2018-01-11T11:57:02.861Z,8.80
2018-01-11T11:59:30.420Z,8.80
2018-01-11T12:01:57.982Z,8.80
2018-01-11T12:04:25.546Z,8.80
2018-01-11T12:06:53.136Z,8.80
2018-01-11T12:09:21.486Z,8.80
2018-01-11T12:11:49.084Z,8.80
2018-01-11T12:14:17.429Z,8.80
2018-01-11T12:16:45.009Z,8.80
2018-01-11T12:19:12.574Z,8.90
2018-01-11T12:21:40.129Z,8.90
2018-01-11T12:24:07.685Z,8.90
2018-01-11T12:26:35.349Z,8.90
2018-01-11T12:29:02.913Z,8.80
2018-01-11T12:31:30.489Z,8.80
2018-01-11T12:33:58.820Z,8.80
2018-01-11T12:36:32.750Z,8.90
2018-01-11T12:39:00.344Z,8.80
2018-01-11T12:41:28.677Z,8.80
2018-01-11T12:43:56.240Z,8.80
2018-01-11T12:46:23.819Z,8.80
2018-01-11T12:48:51.475Z,8.80
2018-01-11T12:51:19.028Z,8.70
2018-01-11T12:53:46.641Z,8.70
2018-01-11T12:56:14.237Z,8.70
2018-01-11T12:58:41.852Z,8.70
2018-01-11T13:01:10.213Z,8.70
2018-01-11T13:03:37.801Z,8.70
2018-01-11T13:06:05.368Z,8.70
2018-01-11T13:08:32.932Z,8.70
2018-01-11T13:11:00.512Z,8.70
2018-01-11T13:13:28.088Z,8.60
2018-01-11T13:15:55.665Z,8.60
2018-01-11T13:18:24.034Z,8.40
2018-01-11T13:20:51.610Z,8.40
2018-01-11T13:23:19.169Z,8.40
2018-01-11T13:25:46.748Z,8.40
2018-01-11T13:28:15.090Z,8.20
2018-01-11T13:30:42.644Z,8.20
2018-01-11T13:33:10.283Z,8.20
2018-01-11T13:35:37.825Z,8.10
2018-01-11T13:38:06.183Z,8.10
2018-01-11T13:40:33.749Z,8.10
2018-01-11T13:43:02.135Z,8.00
2018-01-11T13:45:30.450Z,8.00
2018-01-11T13:47:58.043Z,7.90
2018-01-11T13:50:25.599Z,8.00
2018-01-11T13:52:54.220Z,8.00
2018-01-11T13:55:21.800Z,8.00
2018-01-11T13:57:50.396Z,8.10
2018-01-11T14:00:17.977Z,8.10
2018-01-11T14:02:45.565Z,8.10
2018-01-11T14:05:13.153Z,8.10
2018-01-11T14:07:41.577Z,8.00
2018-01-11T14:10:09.129Z,8.00
2018-01-11T14:12:36.701Z,8.10
2018-01-11T14:15:04.282Z,8.10
2018-01-11T14:17:31.832Z,8.10
2018-01-11T14:29:44.445Z,8.20
2018-01-11T14:32:12.034Z,8.10
2018-01-11T14:34:39.606Z,8.10
2018-01-11T14:37:07.166Z,8.10
2018-01-11T14:39:34.741Z,8.10
2018-01-11T14:42:02.333Z,8.20
2018-01-11T14:44:29.902Z,8.20
2018-01-11T14:46:57.457Z,8.10
2018-01-11T14:49:25.024Z,8.10
2018-01-11T14:51:52.617Z,8.10
2018-01-11T14:54:20.197Z,8.10
2018-01-11T14:56:47.751Z,8.10
2018-01-11T14:59:15.315Z,8.10
2018-01-11T15:01:42.881Z,8.10
2018-01-11T15:04:10.452Z,8.00
2018-01-11T15:06:38.014Z,8.00
2018-01-11T15:09:05.583Z,8.00
2018-01-11T15:11:33.173Z,8.00
2018-01-11T15:14:00.757Z,7.90
2018-01-11T15:16:29.097Z,7.90
2018-01-11T15:18:56.673Z,7.80
2018-01-11T15:21:24.228Z,7.80
2018-01-11T15:23:51.861Z,7.80
2018-01-11T15:26:19.459Z,7.70
2018-01-11T15:28:47.021Z,7.70
2018-01-11T15:31:14.592Z,7.60
2018-01-11T15:33:42.912Z,7.60
2018-01-11T15:36:10.498Z,7.60
2018-01-11T15:38:38.159Z,7.60
2018-01-11T15:41:05.741Z,7.60
2018-01-11T15:43:33.297Z,7.60
2018-01-11T15:46:01.837Z,7.50
2018-01-11T15:48:29.409Z,7.50
2018-01-11T15:50:56.989Z,7.50
2018-01-11T15:53:24.593Z,7.50
2018-01-11T15:55:52.918Z,7.40
2018-01-11T15:58:20.504Z,7.40
2018-01-11T16:00:48.086Z,7.40
2018-01-11T16:03:16.703Z,7.40
2018-01-11T16:05:44.293Z,7.40
2018-01-11T16:08:11.921Z,7.40
2018-01-11T16:10:39.477Z,7.40
2018-01-11T16:13:07.061Z,7.30
2018-01-11T16:15:34.642Z,7.30
2018-01-11T16:18:02.266Z,7.30
2018-01-11T16:20:29.827Z,7.30
2018-01-11T16:22:57.412Z,7.30
2018-01-11T16:25:24.997Z,7.20
2018-01-11T16:27:52.569Z,7.20
2018-01-11T16:30:20.153Z,7.20
2018-01-11T16:32:48.521Z,7.10
2018-01-11T16:35:16.941Z,7.10
2018-01-11T16:37:44.580Z,7.10
2018-01-11T16:40:12.906Z,7.10
2018-01-11T16:42:41.365Z,7.10
2018-01-11T16:45:08.978Z,7.10
2018-01-11T16:47:37.330Z,7.00
2018-01-11T16:50:04.914Z,7.00
2018-01-11T16:52:33.298Z,7.00
2018-01-11T16:55:01.622Z,7.00
2018-01-11T16:57:29.182Z,7.00
2018-01-11T16:59:56.839Z,7.10
2018-01-11T17:02:24.400Z,7.10
2018-01-11T17:04:51.960Z,7.10
2018-01-11T17:07:19.534Z,7.10
2018-01-11T17:09:47.124Z,7.10
2018-01-11T17:12:14.781Z,7.00
2018-01-11T17:14:42.684Z,7.00
2018-01-11T17:17:11.333Z,7.00
2018-01-11T17:19:38.942Z,7.00
2018-01-11T17:22:06.606Z,7.00
2018-01-11T17:24:36.432Z,7.00
2018-01-11T17:27:04.025Z,6.90
2018-01-11T17:29:31.625Z,7.00
2018-01-11T17:31:59.959Z,7.00
2018-01-11T17:34:28.294Z,7.00
2018-01-11T17:36:56.710Z,7.00
2018-01-11T17:39:24.288Z,7.00
2018-01-11T17:41:51.913Z,7.00
2018-01-11T17:44:19.520Z,7.10
2018-01-11T17:46:47.081Z,7.10
2018-01-11T17:49:15.454Z,7.20
2018-01-11T17:51:43.157Z,7.20
2018-01-11T17:54:11.490Z,7.10
2018-01-11T17:56:39.106Z,7.20
2018-01-11T17:59:06.688Z,7.10
2018-01-11T18:01:34.281Z,7.10
2018-01-11T18:04:01.865Z,7.10
2018-01-11T18:06:29.471Z,7.00
2018-01-11T18:08:57.067Z,6.90
2018-01-11T18:11:24.669Z,6.90
2018-01-11T18:13:53.650Z,6.90
2018-01-11T18:16:21.201Z,6.90
2018-01-11T18:18:48.785Z,6.80
2018-01-11T18:21:17.128Z,6.80
2018-01-11T18:23:44.737Z,6.80
2018-01-11T18:26:13.091Z,6.80
2018-01-11T18:28:41.482Z,6.80
2018-01-11T18:31:09.844Z,6.80
2018-01-11T18:33:37.477Z,6.80
2018-01-11T18:36:05.039Z,6.80
2018-01-11T18:38:32.606Z,6.90
2018-01-11T18:41:00.224Z,6.90
2018-01-11T18:43:27.806Z,6.90
2018-01-11T18:45:55.418Z,6.90
2018-01-11T18:48:23.788Z,7.00
2018-01-11T18:50:51.395Z,6.90
2018-01-11T18:53:19.502Z,7.00
2018-01-11T18:55:47.097Z,7.00
2018-01-11T18:58:15.466Z,7.00
2018-01-11T19:00:43.058Z,7.00
2018-01-11T19:03:10.642Z,7.00
2018-01-11T19:05:38.250Z,7.00
2018-01-11T19:08:05.826Z,7.00
2018-01-11T19:10:34.177Z,7.00
2018-01-11T19:13:01.897Z,7.00
2018-01-11T19:15:29.511Z,6.90
2018-01-11T19:17:57.083Z,6.90
2018-01-11T19:26:15.679Z,6.70
2018-01-11T19:28:44.086Z,6.60
2018-01-11T19:31:11.690Z,6.60
2018-01-11T19:33:39.292Z,6.60
2018-01-11T19:36:07.677Z,6.60
2018-01-11T19:38:36.015Z,6.70
2018-01-11T19:41:03.695Z,6.70
2018-01-11T19:43:31.278Z,6.70
2018-01-11T19:45:58.892Z,6.70
2018-01-11T19:48:26.562Z,6.80
2018-01-11T19:50:54.140Z,6.80
2018-01-11T19:53:22.564Z,6.80
2018-01-11T19:55:51.049Z,6.80
2018-01-11T19:58:18.621Z,6.80
2018-01-11T20:00:46.246Z,6.80
2018-01-11T20:03:14.664Z,6.80
2018-01-11T20:08:20.430Z,6.80
2018-01-11T20:10:48.968Z,6.80
2018-01-11T20:13:17.335Z,6.80
2018-01-11T20:15:44.936Z,6.80
2018-01-11T20:18:12.554Z,6.80
2018-01-11T20:20:40.148Z,6.80
2018-01-11T20:23:07.745Z,6.80
2018-01-11T20:25:35.367Z,6.70
2018-01-11T20:28:03.712Z,6.60
2018-01-11T20:30:31.309Z,6.60
2018-01-11T20:32:59.672Z,6.60
2018-01-11T20:35:27.913Z,6.60
2018-01-11T20:37:56.298Z,6.60
2018-01-11T20:40:23.915Z,6.60
2018-01-11T20:42:51.581Z,6.70
2018-01-11T20:45:19.290Z,6.60
2018-01-11T20:47:48.645Z,6.70
2018-01-11T20:50:17.790Z,6.70
2018-01-11T20:52:45.718Z,6.70
2018-01-11T20:55:13.325Z,6.80
2018-01-11T20:57:40.892Z,6.70
2018-01-11T21:00:08.499Z,6.70
2018-01-11T21:02:36.073Z,6.70
2018-01-11T21:05:04.262Z,6.70
2018-01-11T21:07:31.845Z,6.70
2018-01-11T21:09:59.424Z,6.60
2018-01-11T21:12:27.015Z,6.60
2018-01-11T21:14:54.621Z,6.60
2018-01-11T21:17:22.213Z,6.60
2018-01-11T21:19:50.562Z,6.50
2018-01-11T21:22:18.138Z,6.50
2018-01-11T21:24:45.769Z,6.50
2018-01-11T21:27:13.322Z,6.40
2018-01-11T21:29:40.976Z,6.40
2018-01-11T21:32:08.564Z,6.40
2018-01-11T21:34:36.181Z,6.30
2018-01-11T21:37:03.764Z,6.30
2018-01-11T21:39:31.321Z,6.20
2018-01-11T21:41:58.888Z,6.20
2018-01-11T21:44:26.498Z,6.10
2018-01-11T21:46:54.084Z,6.00
2018-01-11T21:49:22.422Z,5.90
2018-01-11T21:51:50.010Z,5.90
2018-01-11T21:54:18.359Z,5.80
2018-01-11T21:56:45.935Z,5.80
2018-01-11T21:59:14.268Z,5.80
2018-01-11T22:01:41.880Z,5.80
2018-01-11T22:04:09.602Z,5.80
2018-01-11T22:06:37.166Z,5.70
2018-01-11T22:09:04.755Z,5.70
2018-01-11T22:11:32.308Z,5.70
2018-01-11T22:13:59.877Z,5.70
2018-01-11T22:16:27.481Z,5.70
2018-01-11T22:18:55.021Z,5.60
2018-01-11T22:21:23.374Z,5.60
2018-01-11T22:23:50.975Z,5.60
2018-01-11T22:26:18.541Z,5.60
2018-01-11T22:28:46.118Z,5.60
2018-01-11T22:31:13.697Z,5.60
2018-01-11T22:33:41.254Z,5.60
2018-01-11T22:36:08.833Z,5.60
2018-01-11T22:38:36.412Z,5.60
2018-01-11T22:41:04.781Z,5.50
2018-01-11T22:43:32.352Z,5.50
2018-01-11T22:45:59.953Z,5.50
2018-01-11T22:48:27.501Z,5.50
2018-01-11T22:50:55.089Z,5.50
2018-01-11T22:53:22.672Z,5.50
2018-01-11T22:55:50.277Z,5.50
2018-01-11T22:58:18.618Z,5.50
2018-01-11T23:00:46.221Z,5.50
2018-01-11T23:03:14.560Z,5.40
2018-01-11T23:05:42.142Z,5.40
2018-01-11T23:08:10.460Z,5.40
2018-01-11T23:10:38.058Z,5.40
2018-01-11T23:13:05.638Z,5.40
2018-01-11T23:15:33.215Z,5.40
2018-01-11T23:18:01.566Z,5.40
2018-01-11T23:20:29.197Z,5.40
2018-01-11T23:22:56.759Z,5.40
2018-01-11T23:25:24.337Z,5.50
2018-01-11T23:27:51.911Z,5.40
2018-01-11T23:30:19.605Z,5.50
2018-01-11T23:32:47.924Z,5.50
2018-01-11T23:35:15.554Z,5.50
2018-01-11T23:37:43.148Z,5.50
2018-01-11T23:40:10.769Z,5.50
2018-01-11T23:42:39.110Z,5.40
2018-01-11T23:45:07.458Z,5.40
2018-01-11T23:47:35.076Z,5.40
2018-01-11T23:50:02.627Z,5.40
2018-01-11T23:52:30.245Z,5.30
2018-01-11T23:54:57.793Z,5.30
2018-01-11T23:57:26.162Z,5.30
2018-01-11T23:59:53.714Z,5.30
